createdAt,value
2022-12-01T00:01:45.588Z,15.46
2022-12-01T00:04:11.895Z,15.45
2022-12-01T00:06:38.145Z,15.51
2022-12-01T00:09:04.410Z,15.54
2022-12-01T00:11:30.665Z,15.99
2022-12-01T00:13:56.928Z,15.37
2022-12-01T00:16:23.290Z,15.78
2022-12-01T00:18:49.566Z,15.75
2022-12-01T00:21:15.842Z,15.26
2022-12-01T00:23:42.087Z,15.55
2022-12-01T00:26:08.346Z,15.87
2022-12-01T00:28:34.623Z,16.00
2022-12-01T00:31:00.883Z,16.03
2022-12-01T00:33:27.144Z,16.16
2022-12-01T00:35:53.390Z,16.09
2022-12-01T00:38:19.661Z,15.95
2022-12-01T00:40:45.920Z,16.09
2022-12-01T00:43:12.167Z,15.69
2022-12-01T00:45:38.514Z,15.85
2022-12-01T00:48:04.770Z,15.53
2022-12-01T00:50:31.011Z,15.37
2022-12-01T00:52:57.256Z,15.11
2022-12-01T00:55:23.517Z,15.60
2022-12-01T00:57:49.773Z,15.19
2022-12-01T01:00:16.046Z,15.12
2022-12-01T01:02:42.299Z,14.82
2022-12-01T01:05:08.594Z,14.89
2022-12-01T01:07:34.889Z,15.41
2022-12-01T01:10:01.154Z,14.66
2022-12-01T01:12:27.395Z,15.23
2022-12-01T01:14:53.650Z,15.47
2022-12-01T01:17:19.894Z,14.77
2022-12-01T01:19:46.413Z,14.88
2022-12-01T01:22:12.785Z,14.07
2022-12-01T01:24:39.030Z,14.47
2022-12-01T01:27:05.273Z,14.59
2022-12-01T01:29:31.526Z,14.15
2022-12-01T01:31:57.785Z,14.82
2022-12-01T01:34:24.039Z,14.50
2022-12-01T01:36:50.341Z,14.19
2022-12-01T01:39:16.602Z,13.91
2022-12-01T01:41:42.857Z,13.88
2022-12-01T01:44:09.120Z,14.12
2022-12-01T01:46:35.421Z,14.13
2022-12-01T01:49:01.698Z,13.43
2022-12-01T01:51:27.948Z,14.18
2022-12-01T01:53:54.181Z,13.83
2022-12-01T01:56:20.429Z,14.33
2022-12-01T01:58:46.666Z,14.13
2022-12-01T02:01:12.929Z,13.76
2022-12-01T02:03:39.209Z,13.81
2022-12-01T02:06:05.470Z,14.63
2022-12-01T02:08:31.707Z,14.11
2022-12-01T02:10:57.974Z,14.37
2022-12-01T02:13:24.231Z,13.65
2022-12-01T02:15:50.462Z,13.81
2022-12-01T02:18:16.720Z,13.97
2022-12-01T02:20:42.968Z,13.51
2022-12-01T02:23:09.208Z,13.88
2022-12-01T02:25:35.487Z,14.05
2022-12-01T02:28:01.753Z,13.84
2022-12-01T02:30:28.027Z,13.32
2022-12-01T02:32:54.345Z,13.82
2022-12-01T02:35:20.597Z,13.45
2022-12-01T02:37:46.855Z,13.33
2022-12-01T02:40:13.123Z,13.28
2022-12-01T02:42:39.380Z,12.95
2022-12-01T02:45:05.649Z,12.57
2022-12-01T02:47:31.882Z,13.17
2022-12-01T02:49:58.173Z,12.95
2022-12-01T02:52:24.462Z,13.71
2022-12-01T02:54:50.701Z,14.09
2022-12-01T02:57:16.967Z,13.62
2022-12-01T02:59:43.228Z,13.77
2022-12-01T03:02:09.580Z,12.84
2022-12-01T03:04:35.864Z,13.21
2022-12-01T03:07:02.118Z,13.28
2022-12-01T03:09:28.374Z,13.40
2022-12-01T03:11:54.628Z,13.30
2022-12-01T03:14:20.886Z,13.49
2022-12-01T03:16:47.129Z,13.77
2022-12-01T03:19:13.381Z,13.78
2022-12-01T03:21:39.633Z,13.95
2022-12-01T03:24:05.874Z,14.52
2022-12-01T03:26:32.137Z,14.23
2022-12-01T03:28:58.389Z,13.85
2022-12-01T03:31:24.704Z,13.07
2022-12-01T03:33:51.002Z,13.97
2022-12-01T03:36:17.263Z,14.33
2022-12-01T03:38:43.511Z,14.37
2022-12-01T03:41:09.782Z,14.35
2022-12-01T03:43:36.022Z,15.13
2022-12-01T03:46:02.384Z,14.39
2022-12-01T03:48:28.652Z,14.57
2022-12-01T03:50:54.899Z,14.68
2022-12-01T03:53:21.148Z,14.87
2022-12-01T03:55:47.401Z,14.83
2022-12-01T03:58:13.656Z,15.00
2022-12-01T04:00:39.917Z,14.25
2022-12-01T04:03:06.280Z,14.81
2022-12-01T04:05:32.589Z,15.30
2022-12-01T04:07:58.883Z,15.07
2022-12-01T04:10:25.162Z,14.75
2022-12-01T04:12:51.398Z,15.02
2022-12-01T04:15:17.666Z,15.32
2022-12-01T04:17:43.906Z,15.93
2022-12-01T04:20:10.149Z,14.97
2022-12-01T04:22:36.396Z,14.05
2022-12-01T04:25:02.716Z,14.82
2022-12-01T04:27:28.970Z,15.14
2022-12-01T04:29:55.214Z,15.08
2022-12-01T04:32:21.582Z,16.10
2022-12-01T04:34:47.841Z,15.75
2022-12-01T04:37:14.104Z,15.17
2022-12-01T04:39:40.358Z,15.40
2022-12-01T04:42:06.614Z,15.84
2022-12-01T04:44:35.077Z,15.79
2022-12-01T04:47:01.651Z,15.15
2022-12-01T04:49:27.973Z,15.29
2022-12-01T04:51:54.214Z,15.67
2022-12-01T04:54:20.465Z,16.13
2022-12-01T04:56:46.743Z,15.67
2022-12-01T04:59:12.982Z,16.65
2022-12-01T05:01:39.275Z,15.34
2022-12-01T05:04:05.610Z,15.60
2022-12-01T05:06:31.860Z,16.16
2022-12-01T05:08:58.113Z,16.27
2022-12-01T05:11:24.398Z,15.89
2022-12-01T05:13:50.637Z,16.18
2022-12-01T05:16:16.945Z,15.98
2022-12-01T05:18:43.237Z,16.08
2022-12-01T05:21:09.531Z,16.15
2022-12-01T05:23:35.783Z,16.09
2022-12-01T05:26:02.022Z,16.42
2022-12-01T05:28:28.257Z,16.57
2022-12-01T05:30:54.509Z,16.09
2022-12-01T05:33:20.772Z,16.72
2022-12-01T05:35:47.060Z,17.01
2022-12-01T05:38:13.329Z,17.18
2022-12-01T05:40:39.574Z,17.57
2022-12-01T05:43:05.825Z,17.45
2022-12-01T05:45:32.128Z,16.82
2022-12-01T05:47:58.497Z,17.00
2022-12-01T05:50:24.741Z,17.01
2022-12-01T05:52:50.981Z,17.48
2022-12-01T05:55:17.237Z,18.20
2022-12-01T05:57:43.502Z,17.75
2022-12-01T06:00:09.748Z,19.35
2022-12-01T06:02:35.998Z,19.32
2022-12-01T06:05:02.239Z,18.20
2022-12-01T06:07:28.549Z,17.90
2022-12-01T06:09:54.805Z,17.67
2022-12-01T06:12:21.092Z,17.49
2022-12-01T06:14:47.355Z,17.02
2022-12-01T06:17:13.595Z,17.74
2022-12-01T06:19:39.837Z,17.43
2022-12-01T06:22:06.093Z,17.01
2022-12-01T06:24:32.343Z,16.94
2022-12-01T06:26:58.591Z,17.45
2022-12-01T06:29:24.842Z,17.68
2022-12-01T06:31:51.185Z,17.62
2022-12-01T06:34:17.494Z,17.90
2022-12-01T06:36:43.748Z,18.65
2022-12-01T06:39:10.005Z,18.66
2022-12-01T06:41:36.275Z,18.07
2022-12-01T06:44:02.513Z,18.24
2022-12-01T06:46:28.812Z,18.36
2022-12-01T06:48:55.129Z,18.64
2022-12-01T06:51:21.384Z,18.54
2022-12-01T06:53:47.630Z,18.37
2022-12-01T06:56:13.890Z,19.33
2022-12-01T06:58:40.314Z,18.48
2022-12-01T07:01:06.719Z,18.49
2022-12-01T07:03:32.974Z,17.53
2022-12-01T07:05:59.234Z,18.19
2022-12-01T07:08:25.495Z,17.66
2022-12-01T07:10:51.762Z,17.19
2022-12-01T07:13:18.005Z,17.10
2022-12-01T07:15:44.270Z,17.62
2022-12-01T07:18:10.529Z,17.73
2022-12-01T07:20:36.789Z,17.45
2022-12-01T07:23:03.044Z,16.98
2022-12-01T07:25:30.401Z,17.69
2022-12-01T07:27:56.651Z,16.83
2022-12-01T07:30:28.094Z,16.73
2022-12-01T07:32:54.748Z,17.52
2022-12-01T07:35:21.013Z,16.92
2022-12-01T07:37:47.292Z,17.08
2022-12-01T07:40:13.550Z,17.87
2022-12-01T07:42:39.791Z,17.38
2022-12-01T07:45:06.041Z,17.80
2022-12-01T07:47:32.282Z,18.08
2022-12-01T07:49:58.525Z,17.96
2022-12-01T07:52:24.777Z,18.09
2022-12-01T07:54:51.037Z,18.27
2022-12-01T07:57:17.306Z,18.84
2022-12-01T07:59:43.564Z,17.69
2022-12-01T08:02:09.905Z,17.86
2022-12-01T08:04:36.233Z,18.12
2022-12-01T08:07:02.515Z,16.65
2022-12-01T08:09:28.760Z,16.73
2022-12-01T08:11:55.137Z,16.84
2022-12-01T08:14:21.413Z,16.93
2022-12-01T08:16:47.669Z,17.67
2022-12-01T08:19:13.926Z,21.81
2022-12-01T08:21:40.175Z,20.45
2022-12-01T08:24:06.418Z,17.62
2022-12-01T08:26:32.683Z,17.42
2022-12-01T08:28:58.957Z,17.51
2022-12-01T08:31:25.261Z,17.22
2022-12-01T08:33:51.572Z,17.33
2022-12-01T08:36:17.832Z,17.60
2022-12-01T08:38:44.087Z,17.49
2022-12-01T08:41:10.359Z,17.73
2022-12-01T08:46:22.959Z,17.29
2022-12-01T08:48:49.263Z,17.26
2022-12-01T08:51:15.521Z,17.27
2022-12-01T08:53:45.422Z,17.29
2022-12-01T08:56:12.197Z,16.98
2022-12-01T08:58:38.440Z,18.72
2022-12-01T09:01:04.697Z,18.03
2022-12-01T09:03:30.965Z,18.09
2022-12-01T09:05:57.224Z,18.62
2022-12-01T09:08:23.469Z,17.68
2022-12-01T09:10:49.723Z,17.06
2022-12-01T09:13:15.956Z,17.21
2022-12-01T09:15:42.194Z,16.90
2022-12-01T09:18:08.437Z,17.58
2022-12-01T09:20:34.682Z,17.41
2022-12-01T09:23:00.946Z,16.71
2022-12-01T09:25:27.190Z,16.71
2022-12-01T09:27:53.455Z,17.67
2022-12-01T09:30:19.713Z,17.40
2022-12-01T09:32:45.977Z,17.73
2022-12-01T09:35:12.226Z,18.17
2022-12-01T09:37:38.492Z,18.57
2022-12-01T09:40:04.757Z,18.42
2022-12-01T09:42:35.317Z,18.54
2022-12-01T09:45:01.978Z,18.05
2022-12-01T09:47:28.245Z,16.94
2022-12-01T09:49:54.688Z,16.88
2022-12-01T09:52:20.941Z,17.08
2022-12-01T09:54:47.182Z,17.35
2022-12-01T09:57:13.442Z,16.97
2022-12-01T09:59:39.704Z,16.83
2022-12-01T10:02:05.970Z,16.25
2022-12-01T10:04:32.237Z,17.22
2022-12-01T10:06:58.498Z,16.97
2022-12-01T10:09:24.741Z,17.38
2022-12-01T10:11:50.995Z,16.69
2022-12-01T10:14:19.952Z,16.52
2022-12-01T10:16:46.958Z,16.43
2022-12-01T10:19:13.217Z,17.08
2022-12-01T10:21:39.461Z,16.22
2022-12-01T10:24:05.725Z,15.58
2022-12-01T10:26:31.990Z,16.36
2022-12-01T10:28:58.241Z,16.07
2022-12-01T10:31:24.541Z,15.93
2022-12-01T10:33:50.809Z,16.62
2022-12-01T10:36:17.057Z,16.20
2022-12-01T10:38:43.301Z,16.46
2022-12-01T10:41:09.561Z,16.08
2022-12-01T10:43:35.817Z,15.98
2022-12-01T10:46:02.113Z,15.78
2022-12-01T10:48:28.383Z,15.47
2022-12-01T10:50:54.637Z,15.40
2022-12-01T10:53:20.901Z,15.32
2022-12-01T10:55:48.188Z,14.72
2022-12-01T10:58:14.506Z,14.42
2022-12-01T11:00:58.969Z,13.89
2022-12-01T11:03:25.887Z,14.02
2022-12-01T11:05:52.302Z,13.52
2022-12-01T11:08:18.554Z,13.91
2022-12-01T11:10:44.920Z,13.96
2022-12-01T11:13:11.183Z,14.38
2022-12-01T11:15:37.423Z,14.19
2022-12-01T11:18:03.681Z,13.27
2022-12-01T11:20:29.940Z,13.63
2022-12-01T11:22:56.208Z,13.72
2022-12-01T11:25:22.436Z,13.80
2022-12-01T11:27:48.693Z,14.05
2022-12-01T11:30:15.050Z,14.52
2022-12-01T11:32:41.337Z,13.78
2022-12-01T11:35:07.594Z,14.90
2022-12-01T11:37:33.878Z,16.12
2022-12-01T11:40:00.133Z,15.98
2022-12-01T11:42:26.393Z,15.99
2022-12-01T11:44:52.664Z,16.08
2022-12-01T11:47:23.800Z,15.62
2022-12-01T11:49:50.875Z,15.04
2022-12-01T11:52:17.227Z,15.77
2022-12-01T11:54:43.587Z,15.39
2022-12-01T11:57:33.101Z,15.19
2022-12-01T11:59:56.260Z,15.50
2022-12-01T12:02:22.599Z,13.63
2022-12-01T12:04:48.895Z,14.14
2022-12-01T12:07:15.137Z,14.40
2022-12-01T12:09:45.818Z,12.35
2022-12-01T12:12:12.148Z,11.48
2022-12-01T12:14:38.394Z,11.86
2022-12-01T12:17:04.641Z,10.92
2022-12-01T12:19:34.239Z,10.65
2022-12-01T12:22:11.643Z,10.53
2022-12-01T12:24:37.888Z,11.34
2022-12-01T12:27:04.131Z,11.53
2022-12-01T12:29:30.363Z,11.47
2022-12-01T12:31:56.615Z,12.53
2022-12-01T12:34:22.882Z,13.30
2022-12-01T12:36:49.138Z,13.13
2022-12-01T12:39:16.955Z,13.18
2022-12-01T12:41:43.433Z,13.53
2022-12-01T12:44:09.678Z,13.10
2022-12-01T12:46:35.960Z,12.87
2022-12-01T12:51:48.542Z,12.48
2022-12-01T12:54:14.862Z,12.94
2022-12-01T12:56:41.177Z,12.80
2022-12-01T12:59:07.421Z,12.95
2022-12-01T13:01:33.737Z,14.08
2022-12-01T13:04:00.056Z,14.11
2022-12-01T13:06:26.322Z,14.29
2022-12-01T13:08:52.557Z,14.64
2022-12-01T13:11:18.875Z,15.09
2022-12-01T13:13:45.149Z,14.70
2022-12-01T13:16:11.428Z,14.90
2022-12-01T13:18:37.730Z,13.99
2022-12-01T13:21:04.009Z,13.78
2022-12-01T13:23:30.269Z,14.90
2022-12-01T13:25:56.509Z,15.58
2022-12-01T13:28:22.751Z,14.65
2022-12-01T13:30:49.079Z,14.70
2022-12-01T13:33:15.496Z,14.95
2022-12-01T13:35:41.776Z,15.17
2022-12-01T13:38:08.022Z,16.73
2022-12-01T13:40:34.271Z,16.56
2022-12-01T13:43:04.232Z,16.77
2022-12-01T13:45:34.751Z,15.67
2022-12-01T13:48:01.005Z,15.57
2022-12-01T13:50:27.273Z,16.08
2022-12-01T13:52:53.528Z,15.28
2022-12-01T13:55:19.777Z,15.16
2022-12-01T13:57:46.036Z,15.31
2022-12-01T14:00:12.377Z,15.31
2022-12-01T14:02:38.833Z,14.64
2022-12-01T14:05:05.155Z,15.23
2022-12-01T14:07:31.485Z,15.42
2022-12-01T14:09:57.793Z,15.81
2022-12-01T14:12:24.038Z,15.90
2022-12-01T14:14:50.293Z,16.28
2022-12-01T14:17:16.552Z,15.40
2022-12-01T14:19:42.827Z,15.90
2022-12-01T14:22:09.075Z,15.87
2022-12-01T14:24:35.321Z,16.19
2022-12-01T14:27:01.595Z,16.22
2022-12-01T14:29:27.837Z,15.96
2022-12-01T14:31:54.094Z,16.04
2022-12-01T14:34:20.343Z,16.65
2022-12-01T14:36:46.606Z,15.88
2022-12-01T14:39:12.873Z,15.57
2022-12-01T14:41:39.132Z,15.99
2022-12-01T14:44:05.387Z,16.17
2022-12-01T14:46:31.645Z,15.17
2022-12-01T14:48:57.914Z,16.06
2022-12-01T14:51:24.173Z,15.75
2022-12-01T14:53:50.441Z,16.39
2022-12-01T14:56:16.694Z,16.50
2022-12-01T14:58:42.938Z,15.81
2022-12-01T15:01:09.323Z,16.33
2022-12-01T15:03:35.719Z,16.87
2022-12-01T15:06:01.961Z,17.26
2022-12-01T15:11:14.453Z,16.96
2022-12-01T15:13:40.732Z,16.94
2022-12-01T15:16:07.019Z,17.39
2022-12-01T15:18:33.301Z,16.74
2022-12-01T15:20:59.548Z,17.10
2022-12-01T15:23:25.791Z,16.76
2022-12-01T15:25:52.035Z,16.05
2022-12-01T15:28:18.283Z,16.94
2022-12-01T15:30:44.547Z,17.00
2022-12-01T15:33:10.801Z,17.27
2022-12-01T15:35:37.065Z,18.18
2022-12-01T15:38:03.442Z,16.98
2022-12-01T15:43:15.905Z,16.61
2022-12-01T15:45:42.196Z,16.56
2022-12-01T15:48:08.454Z,17.24
2022-12-01T15:50:34.699Z,16.16
2022-12-01T15:53:00.940Z,16.49
2022-12-01T15:55:27.222Z,15.89
2022-12-01T15:57:53.489Z,16.21
2022-12-01T16:00:19.734Z,16.94
2022-12-01T16:02:46.946Z,21.72
2022-12-01T16:05:13.315Z,44.00
2022-12-01T16:08:11.531Z,28.22
2022-12-01T16:10:25.801Z,17.57
2022-12-01T16:12:52.077Z,17.31
2022-12-01T16:15:18.378Z,17.87
2022-12-01T16:17:44.815Z,18.73
2022-12-01T16:20:11.078Z,18.32
2022-12-01T16:22:37.337Z,17.68
2022-12-01T16:25:03.612Z,18.64
2022-12-01T16:27:29.902Z,18.69
2022-12-01T16:29:56.160Z,19.73
2022-12-01T16:32:22.538Z,20.23
2022-12-01T16:34:48.897Z,19.43
2022-12-01T16:37:15.158Z,18.89
2022-12-01T16:39:41.430Z,17.77
2022-12-01T16:42:07.720Z,19.20
2022-12-01T16:44:34.036Z,19.84
2022-12-01T16:47:00.282Z,20.39
2022-12-01T16:49:26.547Z,19.39
2022-12-01T16:51:57.044Z,19.52
2022-12-01T16:54:23.745Z,20.04
2022-12-01T16:56:50.003Z,21.49
2022-12-01T16:59:16.244Z,20.06
2022-12-01T17:01:42.537Z,20.73
2022-12-01T17:04:08.877Z,19.72
2022-12-01T17:06:35.130Z,19.68
2022-12-01T17:09:01.401Z,20.13
2022-12-01T17:11:27.657Z,20.22
2022-12-01T17:13:53.929Z,20.15
2022-12-01T17:16:20.205Z,21.11
2022-12-01T17:18:46.576Z,20.85
2022-12-01T17:21:12.836Z,21.49
2022-12-01T17:23:39.112Z,20.69
2022-12-01T17:26:05.362Z,20.68
2022-12-01T17:28:31.619Z,22.94
2022-12-01T17:30:57.950Z,22.27
2022-12-01T17:33:24.218Z,22.41
2022-12-01T17:35:50.466Z,23.23
2022-12-01T17:38:16.732Z,24.83
2022-12-01T17:40:42.982Z,25.47
2022-12-01T17:43:09.223Z,24.53
2022-12-01T17:45:35.466Z,25.21
2022-12-01T17:48:01.728Z,24.50
2022-12-01T17:50:27.997Z,24.57
2022-12-01T17:52:54.260Z,23.29
2022-12-01T17:55:20.513Z,22.06
2022-12-01T17:57:46.853Z,22.10
2022-12-01T18:00:13.117Z,21.58
2022-12-01T18:02:39.442Z,22.10
2022-12-01T18:05:05.880Z,24.91
2022-12-01T18:07:32.205Z,26.27
2022-12-01T18:09:58.506Z,24.78
2022-12-01T18:12:24.746Z,26.05
2022-12-01T18:14:51.356Z,23.28
2022-12-01T18:17:17.760Z,27.93
2022-12-01T18:19:44.009Z,28.42
2022-12-01T18:22:10.254Z,26.12
2022-12-01T18:24:36.557Z,24.89
2022-12-01T18:27:02.794Z,24.96
2022-12-01T18:29:29.052Z,26.94
2022-12-01T18:31:55.307Z,22.56
2022-12-01T18:34:21.577Z,24.91
2022-12-01T18:36:47.824Z,21.67
2022-12-01T18:39:14.074Z,21.49
2022-12-01T18:41:40.318Z,22.14
2022-12-01T18:44:06.585Z,21.46
2022-12-01T18:46:32.891Z,22.65
2022-12-01T18:48:59.171Z,22.43
2022-12-01T18:51:25.440Z,21.59
2022-12-01T18:53:51.682Z,22.85
2022-12-01T18:56:19.787Z,24.11
2022-12-01T18:58:46.220Z,24.31
2022-12-01T19:01:12.575Z,23.55
2022-12-01T19:03:38.898Z,23.65
2022-12-01T19:06:05.167Z,24.28
2022-12-01T19:08:31.419Z,24.64
2022-12-01T19:10:57.661Z,24.73
2022-12-01T19:13:23.915Z,25.31
2022-12-01T19:15:50.219Z,25.67
2022-12-01T19:18:16.512Z,25.07
2022-12-01T19:20:42.757Z,24.70
2022-12-01T19:23:09.004Z,24.31
2022-12-01T19:25:35.247Z,24.02
2022-12-01T19:28:01.491Z,25.08
2022-12-01T19:30:27.746Z,26.07
2022-12-01T19:32:53.987Z,24.30
2022-12-01T19:35:20.251Z,22.82
2022-12-01T19:37:46.519Z,22.69
2022-12-01T19:40:12.771Z,22.02
2022-12-01T19:42:39.012Z,22.55
2022-12-01T19:45:05.271Z,22.07
2022-12-01T19:47:31.535Z,21.17
2022-12-01T19:49:57.804Z,21.54
2022-12-01T19:52:24.056Z,21.18
2022-12-01T19:54:50.593Z,22.20
2022-12-01T19:57:16.992Z,21.80
2022-12-01T19:59:43.261Z,21.62
2022-12-01T20:02:09.554Z,21.72
2022-12-01T20:04:35.844Z,22.19
2022-12-01T20:07:02.107Z,22.50
2022-12-01T20:09:28.373Z,22.31
2022-12-01T20:11:54.631Z,22.21
2022-12-01T20:14:20.889Z,22.72
2022-12-01T20:16:47.246Z,23.18
2022-12-01T20:19:13.541Z,22.10
2022-12-01T20:21:39.801Z,22.91
2022-12-01T20:24:06.063Z,23.39
2022-12-01T20:26:32.325Z,22.80
2022-12-01T20:28:58.578Z,22.35
2022-12-01T20:31:24.860Z,22.03
2022-12-01T20:33:51.127Z,22.20
2022-12-01T20:36:17.380Z,23.23
2022-12-01T20:38:43.641Z,22.42
2022-12-01T20:41:09.901Z,22.32
2022-12-01T20:43:36.147Z,21.76
2022-12-01T20:46:02.643Z,22.20
2022-12-01T20:48:28.978Z,21.73
2022-12-01T20:50:55.222Z,21.14
2022-12-01T20:53:21.482Z,21.80
2022-12-01T20:55:47.730Z,21.25
2022-12-01T20:58:13.970Z,21.01
2022-12-01T21:00:40.266Z,21.08
2022-12-01T21:03:06.562Z,20.22
2022-12-01T21:05:32.816Z,20.42
2022-12-01T21:07:59.127Z,20.03
2022-12-01T21:10:25.422Z,20.07
2022-12-01T21:12:51.681Z,20.01
2022-12-01T21:15:17.929Z,19.91
2022-12-01T21:17:44.186Z,19.86
2022-12-01T21:20:10.457Z,19.50
2022-12-01T21:22:36.720Z,20.14
2022-12-01T21:25:02.985Z,20.23
2022-12-01T21:27:29.357Z,19.74
2022-12-01T21:29:55.621Z,19.77
2022-12-01T21:32:21.883Z,21.08
2022-12-01T21:34:48.297Z,20.20
2022-12-01T21:37:14.693Z,20.65
2022-12-01T21:39:40.954Z,21.24
2022-12-01T21:42:07.219Z,21.39
2022-12-01T21:44:33.473Z,20.45
2022-12-01T21:46:59.715Z,22.11
2022-12-01T21:49:25.969Z,21.69
2022-12-01T21:51:52.225Z,22.23
2022-12-01T21:54:18.501Z,22.86
2022-12-01T21:56:44.768Z,21.23
2022-12-01T21:59:11.032Z,20.57
2022-12-01T22:01:37.309Z,21.51
2022-12-01T22:04:03.653Z,21.27
2022-12-01T22:06:30.784Z,21.34
2022-12-01T22:08:57.359Z,21.30
2022-12-01T22:11:23.617Z,20.92
2022-12-01T22:13:49.880Z,20.75
2022-12-01T22:16:16.206Z,20.59
2022-12-01T22:18:42.484Z,21.31
2022-12-01T22:21:08.749Z,20.92
2022-12-01T22:23:34.994Z,20.27
2022-12-01T22:26:01.261Z,21.08
2022-12-01T22:28:27.511Z,21.54
2022-12-01T22:30:53.804Z,21.19
2022-12-01T22:33:20.099Z,20.96
2022-12-01T22:35:46.361Z,21.89
2022-12-01T22:38:12.613Z,20.67
2022-12-01T22:40:38.870Z,21.67
2022-12-01T22:43:08.499Z,21.24
2022-12-01T22:45:38.789Z,21.62
2022-12-01T22:48:05.039Z,21.88
2022-12-01T22:50:31.279Z,21.71
2022-12-01T22:52:57.533Z,21.36
2022-12-01T22:55:23.807Z,20.99
2022-12-01T22:57:50.072Z,21.58
2022-12-01T23:00:16.345Z,21.46
2022-12-01T23:02:42.656Z,22.20
2022-12-01T23:05:08.954Z,22.00
2022-12-01T23:07:35.490Z,22.28
2022-12-01T23:10:01.851Z,21.31
2022-12-01T23:12:28.788Z,21.58
2022-12-01T23:14:55.216Z,22.25
2022-12-01T23:17:21.516Z,22.34
2022-12-01T23:19:47.786Z,22.93
2022-12-01T23:22:14.063Z,22.30
2022-12-01T23:24:40.305Z,22.53
2022-12-01T23:27:06.591Z,22.71
2022-12-01T23:29:32.849Z,22.20
2022-12-01T23:31:59.130Z,21.57
2022-12-01T23:34:25.525Z,22.89
2022-12-01T23:36:51.766Z,22.90
2022-12-01T23:39:18.011Z,23.35
2022-12-01T23:41:44.274Z,23.25
2022-12-01T23:44:10.518Z,23.55
2022-12-01T23:46:36.831Z,23.11
2022-12-01T23:49:03.114Z,23.71
2022-12-01T23:51:29.388Z,23.21
2022-12-01T23:53:55.638Z,23.17
2022-12-01T23:56:21.899Z,23.16
2022-12-01T23:58:48.189Z,23.41
